S 386 Casilo — OZZP — position and weather

sailwx.info

Track history (hours):
 
Tides and Currents Weather Stations Pressure Air Temp Water Temp Dewpoint Dewpoint Depression Visibility Wind Speed Wind Dir Waves Ship Positions

S 386 Casilo

Last reported at 2017-May-25 06:30 UTC. Time now 2017-May-25 06:57 UTC.
Position N 58°10' E 010°48'.

Length 24 m.

Type: Fishing. MMSI: 219948000.

Date/timePositionNaut miles runAvg speedWind from/ knotsBaromVisibWave heightAir tempDewpointWater temp
2017-May-25 06:30N 58°10' E 010°48'1 2.1
2017-May-25 06:00N 58°09' E 010°50'1 2.1
2017-May-25 05:30N 58°09' E 010°50'1 2.0
2017-May-25 04:59N 58°08' E 010°51'1 2.0
2017-May-25 04:30N 58°07' E 010°51'1 2.0
2017-May-25 04:00N 58°06' E 010°52'1 2.0
2017-May-25 03:28N 58°05' E 010°52'1 2.0
2017-May-25 03:00N 58°04' E 010°52'1 2.0
2017-May-25 02:28N 58°03' E 010°53'1 2.0
2017-May-25 02:00N 58°02' E 010°52'1 2.0
2017-May-25 01:29N 58°01' E 010°51'1 1.9
2017-May-25 01:00N 58°00' E 010°50'1 1.9
2017-May-25 00:30N 58°00' E 010°48'1 1.8
2017-May-25 00:00N 58°00' E 010°46'1 1.8
2017-May-24 23:30N 58°00' E 010°44'1 1.8
2017-May-24 23:00N 58°01' E 010°43'1 1.9
2017-May-24 22:20N 58°02' E 010°42'1 1.9
2017-May-24 22:00N 58°02' E 010°41'1 1.9
2017-May-24 21:29N 58°03' E 010°40'1 1.9
2017-May-24 21:00N 58°04' E 010°39'1 1.9
2017-May-24 20:30N 58°05' E 010°38'1 1.9
2017-May-24 20:00N 58°05' E 010°37'1 1.9
2017-May-24 19:30N 58°06' E 010°36'1 1.9
2017-May-24 19:00N 58°07' E 010°35'1 1.9
2017-May-24 18:30N 58°08' E 010°34'1 2.7
2017-May-24 18:00N 58°09' E 010°33'4 8.7
2017-May-24 17:30N 58°10' E 010°41'4 7.6
2017-May-24 17:00N 58°12' E 010°48'1 1.0
2017-May-24 16:30N 58°11' E 010°47'1 2.1
2017-May-24 16:00N 58°10' E 010°47'1 2.2
2017-May-24 15:29N 58°09' E 010°47'1 2.2
2017-May-24 15:00N 58°08' E 010°48'1 2.2
2017-May-24 14:30N 58°07' E 010°48'2 2.2
2017-May-24 13:30N 58°05' E 010°50'1 2.1
2017-May-24 13:00N 58°04' E 010°51'1 2.1
2017-May-24 12:30N 58°03' E 010°51'1 2.1
2017-May-24 11:58N 58°02' E 010°51'1 2.1
2017-May-24 11:30N 58°02' E 010°49'1 2.0
2017-May-24 11:00N 58°01' E 010°47'1 1.9
2017-May-24 10:28N 58°01' E 010°46'1 1.8
2017-May-24 10:00N 58°02' E 010°44'1 1.8
2017-May-24 09:30N 58°03' E 010°44'1 1.8
2017-May-24 08:59N 58°03' E 010°43'1 1.8
2017-May-24 08:29N 58°04' E 010°42'1 1.8
2017-May-24 08:00N 58°05' E 010°42'1 1.8
2017-May-24 07:28N 58°06' E 010°41'1 1.8
2017-May-24 06:57N 58°07' E 010°40'1 1.9
2017-May-24 06:26N 58°07' E 010°38'4 2.2
2017-May-24 04:27N 58°10' E 010°31'3 5.7
2017-May-24 04:00N 58°11' E 010°35'4 8.9
2017-May-24 03:30N 58°12' E 010°43'3 5.6
2017-May-24 03:01N 58°12' E 010°49'1 1.2
2017-May-24 02:30N 58°12' E 010°48'1 2.0
2017-May-24 02:00N 58°11' E 010°48'1 2.0
2017-May-24 01:30N 58°10' E 010°48'1 2.0
2017-May-24 00:59N 58°09' E 010°49'1 2.0
2017-May-24 00:30N 58°08' E 010°50'1 2.0
2017-May-24 00:00N 58°07' E 010°50'1 2.0
2017-May-23 23:30N 58°06' E 010°51'1 2.1
2017-May-23 23:00N 58°05' E 010°51'1 2.1
2017-May-23 22:30N 58°04' E 010°52'1 2.1
2017-May-23 22:00N 58°03' E 010°52'1 2.0
2017-May-23 21:30N 58°02' E 010°52'1 2.0
2017-May-23 20:59N 58°01' E 010°51'1 1.9
2017-May-23 20:29N 58°01' E 010°49'1 1.9
2017-May-23 19:59N 58°01' E 010°47'1 1.9
2017-May-23 19:29N 58°01' E 010°46'1 2.0
2017-May-23 18:58N 58°02' E 010°44'1 2.0
2017-May-23 18:28N 58°02' E 010°43'1 2.0
2017-May-23 18:00N 58°03' E 010°43'1 2.0
2017-May-23 17:30N 58°04' E 010°42'1 2.0
2017-May-23 17:00N 58°05' E 010°41'1 2.0
2017-May-23 16:30N 58°06' E 010°40'1 2.0
2017-May-23 16:00N 58°07' E 010°38'1 2.0
2017-May-23 15:29N 58°07' E 010°37'1 2.1
2017-May-23 15:00N 58°08' E 010°35'2 2.4
2017-May-23 14:00N 58°06' E 010°38'3 5.7
2017-May-23 13:30N 58°04' E 010°41'0 0.9
2017-May-23 13:00N 58°03' E 010°41'1 1.7
2017-May-23 12:30N 58°04' E 010°40'1 1.9
2017-May-23 11:53N 58°05' E 010°39'1 1.8
2017-May-23 11:30N 58°06' E 010°38'2 1.9
2017-May-23 10:41N 58°07' E 010°36'0 1.9
2017-May-23 10:30N 58°07' E 010°35'1 2.0
2017-May-23 10:00N 58°08' E 010°34'1 2.0
2017-May-23 09:17N 58°08' E 010°31'1 1.9
2017-May-23 09:00N 58°08' E 010°30'1 1.9
2017-May-23 08:30N 58°09' E 010°28'1 1.9
2017-May-23 07:59N 58°09' E 010°27'1 1.9
2017-May-23 07:12N 58°09' E 010°24'0 1.9
2017-May-23 06:58N 58°09' E 010°23'1 1.9
2017-May-23 06:26N 58°09' E 010°21'1 1.8
2017-May-23 05:55N 58°09' E 010°19'1 1.9
2017-May-23 05:30N 58°09' E 010°18'2 1.9
2017-May-23 04:19N 58°09' E 010°14'9 2.0
2017-May-22 23:42N 58°06' E 009°57'2 9.0
2017-May-22 23:30N 58°07' E 009°58'5 8.8
2017-May-22 22:59N 58°12' E 009°59'4 8.8
2017-May-22 22:30N 58°16' E 010°01'4 8.9
2017-May-22 22:00N 58°20' E 010°03'4 8.9
2017-May-22 21:30N 58°25' E 010°05'5 9.0
2017-May-22 21:00N 58°29' E 010°07'5 9.2
2017-May-22 20:30N 58°33' E 010°09'5 9.5
2017-May-22 20:00N 58°38' E 010°12'4 7.3
2017-May-22 19:31N 58°41' E 010°14'0 1.0
2017-May-22 19:00N 58°42' E 010°15'1 1.9
2017-May-22 18:30N 58°41' E 010°16'1 1.9
2017-May-22 18:00N 58°40' E 010°17'1 1.9
2017-May-22 17:30N 58°39' E 010°18'1 1.9
2017-May-22 17:00N 58°38' E 010°18'1 1.9
2017-May-22 16:29N 58°37' E 010°19'1 1.9
2017-May-22 16:00N 58°36' E 010°20'1 2.0
2017-May-22 15:30N 58°36' E 010°21'1 2.0
2017-May-22 15:00N 58°35' E 010°22'2 2.0
2017-May-22 14:00N 58°33' E 010°24'1 2.0
2017-May-22 13:30N 58°32' E 010°25'1 2.0
2017-May-22 13:00N 58°31' E 010°26'1 1.9
2017-May-22 12:30N 58°31' E 010°27'1 1.9
2017-May-22 12:00N 58°30' E 010°28'1 1.9
2017-May-22 11:30N 58°29' E 010°29'1 2.5
2017-May-22 11:00N 58°28' E 010°31'3 6.6
2017-May-22 10:30N 58°25' E 010°33'4 8.8
2017-May-22 10:00N 58°21' E 010°34'4 8.8
2017-May-22 09:30N 58°16' E 010°35'5 8.8
2017-May-22 08:59N 58°12' E 010°37'4 9.2
2017-May-22 08:30N 58°08' E 010°39'3 6.5
2017-May-22 08:00N 58°05' E 010°40'1 1.2
2017-May-22 07:30N 58°04' E 010°39'1 2.0
2017-May-22 07:00N 58°05' E 010°38'1 2.0
2017-May-22 06:30N 58°06' E 010°37'1 2.0
2017-May-22 06:00N 58°07' E 010°36'1 1.9
2017-May-22 05:29N 58°07' E 010°34'1 1.9
2017-May-22 05:00N 58°08' E 010°33'1 1.9
2017-May-22 04:30N 58°08' E 010°32'1 1.9
2017-May-22 04:00N 58°09' E 010°30'1 1.8
2017-May-22 03:30N 58°09' E 010°28'1 1.9
2017-May-22 03:00N 58°09' E 010°26'1 2.0
2017-May-22 02:30N 58°09' E 010°25'1 2.0
2017-May-22 02:00N 58°09' E 010°23'1 2.1
2017-May-22 01:30N 58°09' E 010°21'2 2.2
2017-May-22 00:37N 58°09' E 010°17'2 2.2
2017-May-21 23:30N 58°09' E 010°12'1 2.2
2017-May-21 23:00N 58°09' E 010°10'1 2.3
2017-May-21 22:30N 58°08' E 010°08'1 2.3
2017-May-21 22:00N 58°08' E 010°06'1 2.2
2017-May-21 21:30N 58°07' E 010°05'1 2.2
2017-May-21 21:00N 58°07' E 010°03'1 2.2
2017-May-21 20:30N 58°06' E 010°01'1 2.2
2017-May-21 20:00N 58°05' E 009°59'1 2.9
2017-May-21 19:29N 58°05' E 009°57'3 6.5
2017-May-21 19:00N 58°03' E 010°01'4 8.4
2017-May-21 18:30N 58°00' E 010°07'4 8.6
2017-May-21 18:00N 57°57' E 010°14'5 9.0
2017-May-21 17:30N 57°55' E 010°21'4 8.8
2017-May-21 17:00N 57°52' E 010°27'4 8.7
2017-May-21 16:29N 57°50' E 010°34'4 8.3
2017-May-21 16:00N 57°47' E 010°40'3 6.6
2017-May-21 15:30N 57°44' E 010°41'3 1.7
2017-May-21 13:45N 57°43' E 010°36'1 6.0
2017-May-21 13:30N 57°43' E 010°38'4 7.4
2017-May-21 12:59N 57°46' E 010°44'4 8.6
2017-May-21 12:30N 57°50' E 010°44'4 8.6
2017-May-21 12:00N 57°54' E 010°44'4 8.4
2017-May-21 11:30N 57°58' E 010°43'4 8.2
2017-May-21 11:00N 58°02' E 010°43'3 5.5
2017-May-21 10:29N 58°05' E 010°43'0 0.7
2017-May-21 10:00N 58°06' E 010°42'1 1.8
2017-May-21 09:26N 58°06' E 010°41'1 1.9
2017-May-21 09:00N 58°07' E 010°40'1 1.8
2017-May-21 08:30N 58°08' E 010°39'1 1.8
2017-May-21 08:00N 58°08' E 010°38'1 1.9
2017-May-21 07:26N 58°09' E 010°36'1 1.9
2017-May-21 07:00N 58°09' E 010°35'1 2.0
2017-May-21 06:29N 58°10' E 010°33'1 2.0
2017-May-21 05:58N 58°10' E 010°31'1 2.1
2017-May-21 05:30N 58°11' E 010°30'1 2.2
2017-May-21 05:00N 58°11' E 010°28'1 2.1
2017-May-21 04:29N 58°11' E 010°26'1 2.2
2017-May-21 03:58N 58°11' E 010°23'1 2.2
2017-May-21 03:30N 58°11' E 010°22'1 2.2
2017-May-21 02:56N 58°11' E 010°19'1 2.1
2017-May-21 02:26N 58°11' E 010°17'1 2.1
2017-May-21 02:00N 58°10' E 010°16'1 2.0
2017-May-21 01:30N 58°10' E 010°14'1 2.0
2017-May-21 01:00N 58°10' E 010°12'1 2.6
2017-May-21 00:30N 58°09' E 010°10'1 0.9
2017-May-20 23:10N 58°09' E 010°08'1 1.9
2017-May-20 22:46N 58°09' E 010°06'1 2.0
2017-May-20 22:14N 58°08' E 010°04'1 3.0
2017-May-20 21:57N 58°08' E 010°03'2 4.2
2017-May-20 21:30N 58°07' E 010°06'4 7.7
2017-May-20 21:00N 58°06' E 010°13'4 7.4
2017-May-20 20:25N 58°05' E 010°21'3 7.4
2017-May-20 20:00N 58°04' E 010°27'4 7.8
2017-May-20 19:29N 58°03' E 010°34'4 7.9
2017-May-20 19:00N 58°03' E 010°41'4 7.7
2017-May-20 18:30N 58°02' E 010°49'0 0.6
2017-May-20 17:54N 58°02' E 010°49'1 1.3
2017-May-20 17:29N 58°02' E 010°48'1 2.0
2017-May-20 17:00N 58°02' E 010°47'1 1.9
2017-May-20 16:22N 58°02' E 010°44'1 1.9
2017-May-20 15:58N 58°03' E 010°44'1 1.8
2017-May-20 15:30N 58°04' E 010°43'1 1.9
2017-May-20 15:00N 58°05' E 010°42'12 1.8
2017-May-20 08:21N 58°11' E 010°22'1 1.9
2017-May-20 07:52N 58°10' E 010°21'1 1.9
2017-May-20 07:29N 58°10' E 010°19'1 1.9
2017-May-20 06:59N 58°10' E 010°18'1 1.9
2017-May-20 06:30N 58°10' E 010°16'1 1.9
2017-May-20 06:00N 58°10' E 010°14'1 2.0
2017-May-20 05:30N 58°10' E 010°12'1 1.4
2017-May-20 04:58N 58°09' E 010°13'4 9.0
2017-May-20 04:29N 58°08' E 010°21'5 8.9
2017-May-20 03:57N 58°07' E 010°29'4 8.8
2017-May-20 03:29N 58°06' E 010°37'4 9.0
2017-May-20 03:00N 58°05' E 010°45'1 1.1
2017-May-20 02:29N 58°05' E 010°46'1 1.2
2017-May-20 02:00N 58°05' E 010°45'1 1.9
2017-May-20 01:24N 58°06' E 010°44'3 2.0
2017-May-19 23:58N 58°08' E 010°40'1 2.0
2017-May-19 23:26N 58°09' E 010°39'1 2.0
2017-May-19 22:53N 58°10' E 010°37'6 1.9
2017-May-19 19:39N 58°12' E 010°26'0 1.9
2017-May-19 19:30N 58°12' E 010°26'1 1.8
2017-May-19 18:59N 58°13' E 010°24'1 1.9
2017-May-19 18:29N 58°13' E 010°22'1 1.9
2017-May-19 18:00N 58°12' E 010°21'1 1.9
2017-May-19 17:30N 58°12' E 010°19'1 1.8
2017-May-19 17:00N 58°12' E 010°17'1 1.9
2017-May-19 16:30N 58°12' E 010°15'1 1.9
2017-May-19 16:00N 58°12' E 010°14'1 1.9
2017-May-19 15:29N 58°11' E 010°12'1 1.9
2017-May-19 14:59N 58°11' E 010°10'2 1.9
2017-May-19 13:59N 58°10' E 010°07'2 1.9
2017-May-19 13:05N 58°10' E 010°04'0 2.0
2017-May-19 12:53N 58°10' E 010°03'1 2.0
2017-May-19 12:30N 58°09' E 010°02'1 1.6
2017-May-19 11:59N 58°09' E 010°01'4 9.2
2017-May-19 11:30N 58°09' E 010°09'5 9.1
2017-May-19 11:00N 58°09' E 010°18'5 8.8
2017-May-19 10:29N 58°09' E 010°27'4 9.0
2017-May-19 10:00N 58°09' E 010°35'4 7.2
2017-May-19 09:31N 58°09' E 010°42'0 0.8
2017-May-19 08:53N 58°09' E 010°41'1 1.6
2017-May-19 08:21N 58°09' E 010°40'1 1.5
2017-May-19 07:29N 58°10' E 010°38'1 1.5
2017-May-19 06:59N 58°11' E 010°37'2 1.6
2017-May-19 05:49N 58°12' E 010°34'1 1.6
2017-May-19 05:30N 58°12' E 010°33'1 1.7
2017-May-19 04:47N 58°13' E 010°31'1 1.7
2017-May-19 04:28N 58°13' E 010°30'1 1.7
2017-May-19 03:43N 58°13' E 010°27'0 1.8
2017-May-19 03:26N 58°13' E 010°26'1 1.8
2017-May-19 02:43N 58°13' E 010°24'0 1.7
2017-May-19 02:28N 58°13' E 010°23'1 1.8
2017-May-19 02:00N 58°13' E 010°22'1 1.9
2017-May-19 01:27N 58°13' E 010°20'6 2.0
2017-May-18 22:33N 58°11' E 010°09'0 2.0
2017-May-18 22:30N 58°11' E 010°09'1 1.9
2017-May-18 22:00N 58°11' E 010°08'6 1.8
2017-May-18 18:55N 58°06' E 010°03'5 9.6
2017-May-18 18:27N 58°02' E 010°09'4 9.8
2017-May-18 18:00N 57°59' E 010°15'5 9.5
2017-May-18 17:30N 57°56' E 010°21'5 9.4
2017-May-18 17:00N 57°53' E 010°28'5 9.2
2017-May-18 16:30N 57°50' E 010°35'4 9.0
2017-May-18 16:00N 57°47' E 010°41'4 7.1
2017-May-18 15:29N 57°43' E 010°39'2 3.7
2017-May-18 15:00N 57°43' E 010°36'0 0.0
2017-May-18 14:26N 57°43' E 010°36'0 0.0
2017-May-18 13:30N 57°43' E 010°36'0 0.1
2017-May-18 13:00N 57°43' E 010°36'0 0.0
2017-May-18 12:30N 57°43' E 010°36'0 0.0
2017-May-18 12:00N 57°43' E 010°36'0 0.0
2017-May-18 11:30N 57°43' E 010°36'1 1.2
2017-May-18 11:00N 57°43' E 010°37'4 7.9
2017-May-18 10:29N 57°45' E 010°43'4 8.3
2017-May-18 10:00N 57°49' E 010°43'4 8.7
2017-May-18 09:30N 57°54' E 010°42'4 8.6
2017-May-18 09:00N 57°58' E 010°42'4 8.3
2017-May-18 08:30N 58°02' E 010°42'4 8.3
2017-May-18 07:59N 58°06' E 010°42'4 8.2
2017-May-18 07:30N 58°10' E 010°41'0 0.7
2017-May-18 07:00N 58°10' E 010°41'1 1.1
2017-May-18 06:22N 58°11' E 010°39'2 1.7
2017-May-18 05:29N 58°11' E 010°37'2 1.7
2017-May-18 04:12N 58°13' E 010°33'1 1.8
2017-May-18 03:39N 58°13' E 010°32'0 1.8
2017-May-18 03:27N 58°13' E 010°31'4 1.8
2017-May-18 01:08N 58°14' E 010°23'0 1.9
2017-May-18 00:53N 58°14' E 010°22'1 1.9
2017-May-18 00:30N 58°13' E 010°21'1 1.9
2017-May-18 00:00N 58°13' E 010°19'1 2.0
2017-May-17 23:30N 58°13' E 010°17'2 1.9
2017-May-17 22:40N 58°13' E 010°14'1 1.9
2017-May-17 22:12N 58°12' E 010°13'0 2.0
2017-May-17 22:00N 58°12' E 010°12'1 2.0
2017-May-17 21:30N 58°12' E 010°10'1 2.0
2017-May-17 20:55N 58°11' E 010°08'4 1.3
2017-May-17 17:42N 58°08' E 010°03'2 9.3
2017-May-17 17:30N 58°08' E 010°07'5 9.6
2017-May-17 17:00N 58°07' E 010°16'13 9.6
2017-May-17 15:40N 58°06' E 010°39'2 9.4
2017-May-17 15:29N 58°06' E 010°43'3 5.2
2017-May-17 14:59N 58°05' E 010°48'1 1.0
2017-May-17 14:24N 58°05' E 010°48'2 2.0
2017-May-17 13:29N 58°03' E 010°48'1 1.9
2017-May-17 12:59N 58°02' E 010°48'1 1.9
2017-May-17 12:20N 58°01' E 010°46'1 1.8
2017-May-17 11:54N 58°01' E 010°44'1 1.9
2017-May-17 11:15N 58°02' E 010°42'0 1.9
2017-May-17 11:00N 58°02' E 010°41'17 1.4
2017-May-16 22:27N 58°17' E 010°59'4 8.8
2017-May-16 22:00N 58°18' E 011°06'4 8.1
2017-May-16 21:30N 58°19' E 011°13'2 3.7
2017-May-16 21:00N 58°21' E 011°14'0 0.0
2017-May-16 20:30N 58°21' E 011°14'0 0.0
2017-May-16 20:00N 58°21' E 011°14'2 3.9
2017-May-16 19:30N 58°19' E 011°13'3 5.6
2017-May-16 18:59N 58°18' E 011°08'3 5.7
2017-May-16 18:30N 58°17' E 011°03'3 6.7
2017-May-16 18:00N 58°15' E 010°59'3 6.8
2017-May-16 17:30N 58°12' E 010°54'3 6.8
2017-May-16 17:00N 58°11' E 010°48'1 3.0
2017-May-16 16:31N 58°10' E 010°46'1 1.3
2017-May-16 16:00N 58°09' E 010°45'1 2.0
2017-May-16 15:30N 58°08' E 010°45'1 2.1
2017-May-16 14:59N 58°07' E 010°45'1 2.0
2017-May-16 14:23N 58°06' E 010°44'2 2.0
2017-May-16 13:29N 58°07' E 010°40'1 1.9
2017-May-16 13:00N 58°07' E 010°39'1 1.9
2017-May-16 12:30N 58°08' E 010°38'1 1.9
2017-May-16 12:00N 58°08' E 010°36'1 1.8
2017-May-16 11:30N 58°09' E 010°35'2 1.8
2017-May-16 10:09N 58°10' E 010°31'0 1.8
2017-May-16 09:59N 58°10' E 010°30'3 1.9
2017-May-16 08:23N 58°11' E 010°24'1 1.9
2017-May-16 08:00N 58°11' E 010°23'1 2.0
2017-May-16 07:29N 58°11' E 010°21'2 2.0
2017-May-16 06:26N 58°11' E 010°17'1 2.0
2017-May-16 06:00N 58°10' E 010°16'1 2.0
2017-May-16 05:29N 58°10' E 010°14'1 2.0
2017-May-16 05:00N 58°10' E 010°12'1 2.0
2017-May-16 04:21N 58°09' E 010°10'4 2.2
2017-May-16 02:36N 58°08' E 010°03'1 2.1
2017-May-16 02:21N 58°08' E 010°02'3 8.8
2017-May-16 01:59N 58°07' E 010°09'4 8.9
2017-May-16 01:30N 58°07' E 010°17'4 8.8
2017-May-16 01:00N 58°06' E 010°25'4 8.9
2017-May-16 00:30N 58°06' E 010°33'4 8.8
2017-May-16 00:00N 58°06' E 010°42'3 6.4
2017-May-15 23:30N 58°05' E 010°48'1 1.2
2017-May-15 23:00N 58°05' E 010°49'1 1.9
2017-May-15 22:30N 58°04' E 010°49'1 1.9
2017-May-15 22:00N 58°03' E 010°49'1 1.8
2017-May-15 21:30N 58°02' E 010°48'1 1.8
2017-May-15 21:00N 58°02' E 010°47'1 1.8
2017-May-15 20:30N 58°01' E 010°46'1 1.8
2017-May-15 20:00N 58°02' E 010°44'1 1.9
2017-May-15 19:30N 58°02' E 010°42'1 2.0
2017-May-15 19:00N 58°03' E 010°41'1 1.9
2017-May-15 18:28N 58°04' E 010°40'1 1.9
2017-May-15 18:00N 58°04' E 010°39'1 2.0
2017-May-15 17:30N 58°05' E 010°38'1 2.0
2017-May-15 17:00N 58°06' E 010°36'1 2.0
2017-May-15 16:30N 58°07' E 010°35'1 2.0
2017-May-15 16:00N 58°07' E 010°34'1 1.9
2017-May-15 15:30N 58°08' E 010°33'1 2.0
2017-May-15 15:00N 58°09' E 010°31'2 1.9
2017-May-15 14:00N 58°09' E 010°28'1 1.9
2017-May-15 13:30N 58°10' E 010°26'1 1.9
2017-May-15 13:00N 58°10' E 010°24'3 0.8
2017-May-15 09:21N 58°08' E 010°20'4 9.2
2017-May-15 08:56N 58°07' E 010°27'4 9.2
2017-May-15 08:28N 58°06' E 010°35'5 9.5
2017-May-15 07:59N 58°04' E 010°43'3 6.0
2017-May-15 07:29N 58°04' E 010°49'1 1.1
2017-May-15 07:00N 58°03' E 010°49'1 1.7
2017-May-15 06:30N 58°02' E 010°47'  
Track history (hours):
 
Tides and Currents Weather Stations Pressure Air Temp Water Temp Dewpoint Dewpoint Depression Visibility Wind Speed Wind Dir Waves Ship Positions

S 386 Casilo

Last reported at 2017-May-25 06:30 UTC. Time now 2017-May-25 06:57 UTC.
Position N 58°10' E 010°48'.

Length 24 m.

Type: Fishing. MMSI: 219948000.

Date/timePositionNaut miles runAvg speedWind from/ knotsBaromVisibWave heightAir tempDewpointWater temp
2017-May-25 06:30N 58°10' E 010°48'1 2.1
2017-May-25 06:00N 58°09' E 010°50'1 2.1
2017-May-25 05:30N 58°09' E 010°50'1 2.0
2017-May-25 04:59N 58°08' E 010°51'1 2.0
2017-May-25 04:30N 58°07' E 010°51'1 2.0
2017-May-25 04:00N 58°06' E 010°52'1 2.0
2017-May-25 03:28N 58°05' E 010°52'1 2.0
2017-May-25 03:00N 58°04' E 010°52'1 2.0
2017-May-25 02:28N 58°03' E 010°53'1 2.0
2017-May-25 02:00N 58°02' E 010°52'1 2.0
2017-May-25 01:29N 58°01' E 010°51'1 1.9
2017-May-25 01:00N 58°00' E 010°50'1 1.9
2017-May-25 00:30N 58°00' E 010°48'1 1.8
2017-May-25 00:00N 58°00' E 010°46'1 1.8
2017-May-24 23:30N 58°00' E 010°44'1 1.8
2017-May-24 23:00N 58°01' E 010°43'1 1.9
2017-May-24 22:20N 58°02' E 010°42'1 1.9
2017-May-24 22:00N 58°02' E 010°41'1 1.9
2017-May-24 21:29N 58°03' E 010°40'1 1.9
2017-May-24 21:00N 58°04' E 010°39'1 1.9
2017-May-24 20:30N 58°05' E 010°38'1 1.9
2017-May-24 20:00N 58°05' E 010°37'1 1.9
2017-May-24 19:30N 58°06' E 010°36'1 1.9
2017-May-24 19:00N 58°07' E 010°35'1 1.9
2017-May-24 18:30N 58°08' E 010°34'1 2.7
2017-May-24 18:00N 58°09' E 010°33'4 8.7
2017-May-24 17:30N 58°10' E 010°41'4 7.6
2017-May-24 17:00N 58°12' E 010°48'1 1.0
2017-May-24 16:30N 58°11' E 010°47'1 2.1
2017-May-24 16:00N 58°10' E 010°47'1 2.2
2017-May-24 15:29N 58°09' E 010°47'1 2.2
2017-May-24 15:00N 58°08' E 010°48'1 2.2
2017-May-24 14:30N 58°07' E 010°48'2 2.2
2017-May-24 13:30N 58°05' E 010°50'1 2.1
2017-May-24 13:00N 58°04' E 010°51'1 2.1
2017-May-24 12:30N 58°03' E 010°51'1 2.1
2017-May-24 11:58N 58°02' E 010°51'1 2.1
2017-May-24 11:30N 58°02' E 010°49'1 2.0
2017-May-24 11:00N 58°01' E 010°47'1 1.9
2017-May-24 10:28N 58°01' E 010°46'1 1.8
2017-May-24 10:00N 58°02' E 010°44'1 1.8
2017-May-24 09:30N 58°03' E 010°44'1 1.8
2017-May-24 08:59N 58°03' E 010°43'1 1.8
2017-May-24 08:29N 58°04' E 010°42'1 1.8
2017-May-24 08:00N 58°05' E 010°42'1 1.8
2017-May-24 07:28N 58°06' E 010°41'1 1.8
2017-May-24 06:57N 58°07' E 010°40'1 1.9
2017-May-24 06:26N 58°07' E 010°38'4 2.2
2017-May-24 04:27N 58°10' E 010°31'3 5.7
2017-May-24 04:00N 58°11' E 010°35'4 8.9
2017-May-24 03:30N 58°12' E 010°43'3 5.6
2017-May-24 03:01N 58°12' E 010°49'1 1.2
2017-May-24 02:30N 58°12' E 010°48'1 2.0
2017-May-24 02:00N 58°11' E 010°48'1 2.0
2017-May-24 01:30N 58°10' E 010°48'1 2.0
2017-May-24 00:59N 58°09' E 010°49'1 2.0
2017-May-24 00:30N 58°08' E 010°50'1 2.0
2017-May-24 00:00N 58°07' E 010°50'1 2.0
2017-May-23 23:30N 58°06' E 010°51'1 2.1
2017-May-23 23:00N 58°05' E 010°51'1 2.1
2017-May-23 22:30N 58°04' E 010°52'1 2.1
2017-May-23 22:00N 58°03' E 010°52'1 2.0
2017-May-23 21:30N 58°02' E 010°52'1 2.0
2017-May-23 20:59N 58°01' E 010°51'1 1.9
2017-May-23 20:29N 58°01' E 010°49'1 1.9
2017-May-23 19:59N 58°01' E 010°47'1 1.9
2017-May-23 19:29N 58°01' E 010°46'1 2.0
2017-May-23 18:58N 58°02' E 010°44'1 2.0
2017-May-23 18:28N 58°02' E 010°43'1 2.0
2017-May-23 18:00N 58°03' E 010°43'1 2.0
2017-May-23 17:30N 58°04' E 010°42'1 2.0
2017-May-23 17:00N 58°05' E 010°41'1 2.0
2017-May-23 16:30N 58°06' E 010°40'1 2.0
2017-May-23 16:00N 58°07' E 010°38'1 2.0
2017-May-23 15:29N 58°07' E 010°37'1 2.1
2017-May-23 15:00N 58°08' E 010°35'2 2.4
2017-May-23 14:00N 58°06' E 010°38'3 5.7
2017-May-23 13:30N 58°04' E 010°41'0 0.9
2017-May-23 13:00N 58°03' E 010°41'1 1.7
2017-May-23 12:30N 58°04' E 010°40'1 1.9
2017-May-23 11:53N 58°05' E 010°39'1 1.8
2017-May-23 11:30N 58°06' E 010°38'2 1.9
2017-May-23 10:41N 58°07' E 010°36'0 1.9
2017-May-23 10:30N 58°07' E 010°35'1 2.0
2017-May-23 10:00N 58°08' E 010°34'1 2.0
2017-May-23 09:17N 58°08' E 010°31'1 1.9
2017-May-23 09:00N 58°08' E 010°30'1 1.9
2017-May-23 08:30N 58°09' E 010°28'1 1.9
2017-May-23 07:59N 58°09' E 010°27'1 1.9
2017-May-23 07:12N 58°09' E 010°24'0 1.9
2017-May-23 06:58N 58°09' E 010°23'1 1.9
2017-May-23 06:26N 58°09' E 010°21'1 1.8
2017-May-23 05:55N 58°09' E 010°19'1 1.9
2017-May-23 05:30N 58°09' E 010°18'2 1.9
2017-May-23 04:19N 58°09' E 010°14'9 2.0
2017-May-22 23:42N 58°06' E 009°57'2 9.0
2017-May-22 23:30N 58°07' E 009°58'5 8.8
2017-May-22 22:59N 58°12' E 009°59'4 8.8
2017-May-22 22:30N 58°16' E 010°01'4 8.9
2017-May-22 22:00N 58°20' E 010°03'4 8.9
2017-May-22 21:30N 58°25' E 010°05'5 9.0
2017-May-22 21:00N 58°29' E 010°07'5 9.2
2017-May-22 20:30N 58°33' E 010°09'5 9.5
2017-May-22 20:00N 58°38' E 010°12'4 7.3
2017-May-22 19:31N 58°41' E 010°14'0 1.0
2017-May-22 19:00N 58°42' E 010°15'1 1.9
2017-May-22 18:30N 58°41' E 010°16'1 1.9
2017-May-22 18:00N 58°40' E 010°17'1 1.9
2017-May-22 17:30N 58°39' E 010°18'1 1.9
2017-May-22 17:00N 58°38' E 010°18'1 1.9
2017-May-22 16:29N 58°37' E 010°19'1 1.9
2017-May-22 16:00N 58°36' E 010°20'1 2.0
2017-May-22 15:30N 58°36' E 010°21'1 2.0
2017-May-22 15:00N 58°35' E 010°22'2 2.0
2017-May-22 14:00N 58°33' E 010°24'1 2.0
2017-May-22 13:30N 58°32' E 010°25'1 2.0
2017-May-22 13:00N 58°31' E 010°26'1 1.9
2017-May-22 12:30N 58°31' E 010°27'1 1.9
2017-May-22 12:00N 58°30' E 010°28'1 1.9
2017-May-22 11:30N 58°29' E 010°29'1 2.5
2017-May-22 11:00N 58°28' E 010°31'3 6.6
2017-May-22 10:30N 58°25' E 010°33'4 8.8
2017-May-22 10:00N 58°21' E 010°34'4 8.8
2017-May-22 09:30N 58°16' E 010°35'5 8.8
2017-May-22 08:59N 58°12' E 010°37'4 9.2
2017-May-22 08:30N 58°08' E 010°39'3 6.5
2017-May-22 08:00N 58°05' E 010°40'1 1.2
2017-May-22 07:30N 58°04' E 010°39'1 2.0
2017-May-22 07:00N 58°05' E 010°38'1 2.0
2017-May-22 06:30N 58°06' E 010°37'1 2.0
2017-May-22 06:00N 58°07' E 010°36'1 1.9
2017-May-22 05:29N 58°07' E 010°34'1 1.9
2017-May-22 05:00N 58°08' E 010°33'1 1.9
2017-May-22 04:30N 58°08' E 010°32'1 1.9
2017-May-22 04:00N 58°09' E 010°30'1 1.8
2017-May-22 03:30N 58°09' E 010°28'1 1.9
2017-May-22 03:00N 58°09' E 010°26'1 2.0
2017-May-22 02:30N 58°09' E 010°25'1 2.0
2017-May-22 02:00N 58°09' E 010°23'1 2.1
2017-May-22 01:30N 58°09' E 010°21'2 2.2
2017-May-22 00:37N 58°09' E 010°17'2 2.2
2017-May-21 23:30N 58°09' E 010°12'1 2.2
2017-May-21 23:00N 58°09' E 010°10'1 2.3
2017-May-21 22:30N 58°08' E 010°08'1 2.3
2017-May-21 22:00N 58°08' E 010°06'1 2.2
2017-May-21 21:30N 58°07' E 010°05'1 2.2
2017-May-21 21:00N 58°07' E 010°03'1 2.2
2017-May-21 20:30N 58°06' E 010°01'1 2.2
2017-May-21 20:00N 58°05' E 009°59'1 2.9
2017-May-21 19:29N 58°05' E 009°57'3 6.5
2017-May-21 19:00N 58°03' E 010°01'4 8.4
2017-May-21 18:30N 58°00' E 010°07'4 8.6
2017-May-21 18:00N 57°57' E 010°14'5 9.0
2017-May-21 17:30N 57°55' E 010°21'4 8.8
2017-May-21 17:00N 57°52' E 010°27'4 8.7
2017-May-21 16:29N 57°50' E 010°34'4 8.3
2017-May-21 16:00N 57°47' E 010°40'3 6.6
2017-May-21 15:30N 57°44' E 010°41'3 1.7
2017-May-21 13:45N 57°43' E 010°36'1 6.0
2017-May-21 13:30N 57°43' E 010°38'4 7.4
2017-May-21 12:59N 57°46' E 010°44'4 8.6
2017-May-21 12:30N 57°50' E 010°44'4 8.6
2017-May-21 12:00N 57°54' E 010°44'4 8.4
2017-May-21 11:30N 57°58' E 010°43'4 8.2
2017-May-21 11:00N 58°02' E 010°43'3 5.5
2017-May-21 10:29N 58°05' E 010°43'0 0.7
2017-May-21 10:00N 58°06' E 010°42'1 1.8
2017-May-21 09:26N 58°06' E 010°41'1 1.9
2017-May-21 09:00N 58°07' E 010°40'1 1.8
2017-May-21 08:30N 58°08' E 010°39'1 1.8
2017-May-21 08:00N 58°08' E 010°38'1 1.9
2017-May-21 07:26N 58°09' E 010°36'1 1.9
2017-May-21 07:00N 58°09' E 010°35'1 2.0
2017-May-21 06:29N 58°10' E 010°33'1 2.0
2017-May-21 05:58N 58°10' E 010°31'1 2.1
2017-May-21 05:30N 58°11' E 010°30'1 2.2
2017-May-21 05:00N 58°11' E 010°28'1 2.1
2017-May-21 04:29N 58°11' E 010°26'1 2.2
2017-May-21 03:58N 58°11' E 010°23'1 2.2
2017-May-21 03:30N 58°11' E 010°22'1 2.2
2017-May-21 02:56N 58°11' E 010°19'1 2.1
2017-May-21 02:26N 58°11' E 010°17'1 2.1
2017-May-21 02:00N 58°10' E 010°16'1 2.0
2017-May-21 01:30N 58°10' E 010°14'1 2.0
2017-May-21 01:00N 58°10' E 010°12'1 2.6
2017-May-21 00:30N 58°09' E 010°10'1 0.9
2017-May-20 23:10N 58°09' E 010°08'1 1.9
2017-May-20 22:46N 58°09' E 010°06'1 2.0
2017-May-20 22:14N 58°08' E 010°04'1 3.0
2017-May-20 21:57N 58°08' E 010°03'2 4.2
2017-May-20 21:30N 58°07' E 010°06'4 7.7
2017-May-20 21:00N 58°06' E 010°13'4 7.4
2017-May-20 20:25N 58°05' E 010°21'3 7.4
2017-May-20 20:00N 58°04' E 010°27'4 7.8
2017-May-20 19:29N 58°03' E 010°34'4 7.9
2017-May-20 19:00N 58°03' E 010°41'4 7.7
2017-May-20 18:30N 58°02' E 010°49'0 0.6
2017-May-20 17:54N 58°02' E 010°49'1 1.3
2017-May-20 17:29N 58°02' E 010°48'1 2.0
2017-May-20 17:00N 58°02' E 010°47'1 1.9
2017-May-20 16:22N 58°02' E 010°44'1 1.9
2017-May-20 15:58N 58°03' E 010°44'1 1.8
2017-May-20 15:30N 58°04' E 010°43'1 1.9
2017-May-20 15:00N 58°05' E 010°42'12 1.8
2017-May-20 08:21N 58°11' E 010°22'1 1.9
2017-May-20 07:52N 58°10' E 010°21'1 1.9
2017-May-20 07:29N 58°10' E 010°19'1 1.9
2017-May-20 06:59N 58°10' E 010°18'1 1.9
2017-May-20 06:30N 58°10' E 010°16'1 1.9
2017-May-20 06:00N 58°10' E 010°14'1 2.0
2017-May-20 05:30N 58°10' E 010°12'1 1.4
2017-May-20 04:58N 58°09' E 010°13'4 9.0
2017-May-20 04:29N 58°08' E 010°21'5 8.9
2017-May-20 03:57N 58°07' E 010°29'4 8.8
2017-May-20 03:29N 58°06' E 010°37'4 9.0
2017-May-20 03:00N 58°05' E 010°45'1 1.1
2017-May-20 02:29N 58°05' E 010°46'1 1.2
2017-May-20 02:00N 58°05' E 010°45'1 1.9
2017-May-20 01:24N 58°06' E 010°44'3 2.0
2017-May-19 23:58N 58°08' E 010°40'1 2.0
2017-May-19 23:26N 58°09' E 010°39'1 2.0
2017-May-19 22:53N 58°10' E 010°37'6 1.9
2017-May-19 19:39N 58°12' E 010°26'0 1.9
2017-May-19 19:30N 58°12' E 010°26'1 1.8
2017-May-19 18:59N 58°13' E 010°24'1 1.9
2017-May-19 18:29N 58°13' E 010°22'1 1.9
2017-May-19 18:00N 58°12' E 010°21'1 1.9
2017-May-19 17:30N 58°12' E 010°19'1 1.8
2017-May-19 17:00N 58°12' E 010°17'1 1.9
2017-May-19 16:30N 58°12' E 010°15'1 1.9
2017-May-19 16:00N 58°12' E 010°14'1 1.9
2017-May-19 15:29N 58°11' E 010°12'1 1.9
2017-May-19 14:59N 58°11' E 010°10'2 1.9
2017-May-19 13:59N 58°10' E 010°07'2 1.9
2017-May-19 13:05N 58°10' E 010°04'0 2.0
2017-May-19 12:53N 58°10' E 010°03'1 2.0
2017-May-19 12:30N 58°09' E 010°02'1 1.6
2017-May-19 11:59N 58°09' E 010°01'4 9.2
2017-May-19 11:30N 58°09' E 010°09'5 9.1
2017-May-19 11:00N 58°09' E 010°18'5 8.8
2017-May-19 10:29N 58°09' E 010°27'4 9.0
2017-May-19 10:00N 58°09' E 010°35'4 7.2
2017-May-19 09:31N 58°09' E 010°42'0 0.8
2017-May-19 08:53N 58°09' E 010°41'1 1.6
2017-May-19 08:21N 58°09' E 010°40'1 1.5
2017-May-19 07:29N 58°10' E 010°38'1 1.5
2017-May-19 06:59N 58°11' E 010°37'2 1.6
2017-May-19 05:49N 58°12' E 010°34'1 1.6
2017-May-19 05:30N 58°12' E 010°33'1 1.7
2017-May-19 04:47N 58°13' E 010°31'1 1.7
2017-May-19 04:28N 58°13' E 010°30'1 1.7
2017-May-19 03:43N 58°13' E 010°27'0 1.8
2017-May-19 03:26N 58°13' E 010°26'1 1.8
2017-May-19 02:43N 58°13' E 010°24'0 1.7
2017-May-19 02:28N 58°13' E 010°23'1 1.8
2017-May-19 02:00N 58°13' E 010°22'1 1.9
2017-May-19 01:27N 58°13' E 010°20'6 2.0
2017-May-18 22:33N 58°11' E 010°09'0 2.0
2017-May-18 22:30N 58°11' E 010°09'1 1.9
2017-May-18 22:00N 58°11' E 010°08'6 1.8
2017-May-18 18:55N 58°06' E 010°03'5 9.6
2017-May-18 18:27N 58°02' E 010°09'4 9.8
2017-May-18 18:00N 57°59' E 010°15'5 9.5
2017-May-18 17:30N 57°56' E 010°21'5 9.4
2017-May-18 17:00N 57°53' E 010°28'5 9.2
2017-May-18 16:30N 57°50' E 010°35'4 9.0
2017-May-18 16:00N 57°47' E 010°41'4 7.1
2017-May-18 15:29N 57°43' E 010°39'2 3.7
2017-May-18 15:00N 57°43' E 010°36'0 0.0
2017-May-18 14:26N 57°43' E 010°36'0 0.0
2017-May-18 13:30N 57°43' E 010°36'0 0.1
2017-May-18 13:00N 57°43' E 010°36'0 0.0
2017-May-18 12:30N 57°43' E 010°36'0 0.0
2017-May-18 12:00N 57°43' E 010°36'0 0.0
2017-May-18 11:30N 57°43' E 010°36'1 1.2
2017-May-18 11:00N 57°43' E 010°37'4 7.9
2017-May-18 10:29N 57°45' E 010°43'4 8.3
2017-May-18 10:00N 57°49' E 010°43'4 8.7
2017-May-18 09:30N 57°54' E 010°42'4 8.6
2017-May-18 09:00N 57°58' E 010°42'4 8.3
2017-May-18 08:30N 58°02' E 010°42'4 8.3
2017-May-18 07:59N 58°06' E 010°42'4 8.2
2017-May-18 07:30N 58°10' E 010°41'0 0.7
2017-May-18 07:00N 58°10' E 010°41'1 1.1
2017-May-18 06:22N 58°11' E 010°39'2 1.7
2017-May-18 05:29N 58°11' E 010°37'2 1.7
2017-May-18 04:12N 58°13' E 010°33'1 1.8
2017-May-18 03:39N 58°13' E 010°32'0 1.8
2017-May-18 03:27N 58°13' E 010°31'4 1.8
2017-May-18 01:08N 58°14' E 010°23'0 1.9
2017-May-18 00:53N 58°14' E 010°22'1 1.9
2017-May-18 00:30N 58°13' E 010°21'1 1.9
2017-May-18 00:00N 58°13' E 010°19'1 2.0
2017-May-17 23:30N 58°13' E 010°17'2 1.9
2017-May-17 22:40N 58°13' E 010°14'1 1.9
2017-May-17 22:12N 58°12' E 010°13'0 2.0
2017-May-17 22:00N 58°12' E 010°12'1 2.0
2017-May-17 21:30N 58°12' E 010°10'1 2.0
2017-May-17 20:55N 58°11' E 010°08'4 1.3
2017-May-17 17:42N 58°08' E 010°03'2 9.3
2017-May-17 17:30N 58°08' E 010°07'5 9.6
2017-May-17 17:00N 58°07' E 010°16'13 9.6
2017-May-17 15:40N 58°06' E 010°39'2 9.4
2017-May-17 15:29N 58°06' E 010°43'3 5.2
2017-May-17 14:59N 58°05' E 010°48'1 1.0
2017-May-17 14:24N 58°05' E 010°48'2 2.0
2017-May-17 13:29N 58°03' E 010°48'1 1.9
2017-May-17 12:59N 58°02' E 010°48'1 1.9
2017-May-17 12:20N 58°01' E 010°46'1 1.8
2017-May-17 11:54N 58°01' E 010°44'1 1.9
2017-May-17 11:15N 58°02' E 010°42'0 1.9
2017-May-17 11:00N 58°02' E 010°41'17 1.4
2017-May-16 22:27N 58°17' E 010°59'4 8.8
2017-May-16 22:00N 58°18' E 011°06'4 8.1
2017-May-16 21:30N 58°19' E 011°13'2 3.7
2017-May-16 21:00N 58°21' E 011°14'0 0.0
2017-May-16 20:30N 58°21' E 011°14'0 0.0
2017-May-16 20:00N 58°21' E 011°14'2 3.9
2017-May-16 19:30N 58°19' E 011°13'3 5.6
2017-May-16 18:59N 58°18' E 011°08'3 5.7
2017-May-16 18:30N 58°17' E 011°03'3 6.7
2017-May-16 18:00N 58°15' E 010°59'3 6.8
2017-May-16 17:30N 58°12' E 010°54'3 6.8
2017-May-16 17:00N 58°11' E 010°48'1 3.0
2017-May-16 16:31N 58°10' E 010°46'1 1.3
2017-May-16 16:00N 58°09' E 010°45'1 2.0
2017-May-16 15:30N 58°08' E 010°45'1 2.1
2017-May-16 14:59N 58°07' E 010°45'1 2.0
2017-May-16 14:23N 58°06' E 010°44'2 2.0
2017-May-16 13:29N 58°07' E 010°40'1 1.9
2017-May-16 13:00N 58°07' E 010°39'1 1.9
2017-May-16 12:30N 58°08' E 010°38'1 1.9
2017-May-16 12:00N 58°08' E 010°36'1 1.8
2017-May-16 11:30N 58°09' E 010°35'2 1.8
2017-May-16 10:09N 58°10' E 010°31'0 1.8
2017-May-16 09:59N 58°10' E 010°30'3 1.9
2017-May-16 08:23N 58°11' E 010°24'1 1.9
2017-May-16 08:00N 58°11' E 010°23'1 2.0
2017-May-16 07:29N 58°11' E 010°21'2 2.0
2017-May-16 06:26N 58°11' E 010°17'1 2.0
2017-May-16 06:00N 58°10' E 010°16'1 2.0
2017-May-16 05:29N 58°10' E 010°14'1 2.0
2017-May-16 05:00N 58°10' E 010°12'1 2.0
2017-May-16 04:21N 58°09' E 010°10'4 2.2
2017-May-16 02:36N 58°08' E 010°03'1 2.1
2017-May-16 02:21N 58°08' E 010°02'3 8.8
2017-May-16 01:59N 58°07' E 010°09'4 8.9
2017-May-16 01:30N 58°07' E 010°17'4 8.8
2017-May-16 01:00N 58°06' E 010°25'4 8.9
2017-May-16 00:30N 58°06' E 010°33'4 8.8
2017-May-16 00:00N 58°06' E 010°42'3 6.4
2017-May-15 23:30N 58°05' E 010°48'1 1.2
2017-May-15 23:00N 58°05' E 010°49'1 1.9
2017-May-15 22:30N 58°04' E 010°49'1 1.9
2017-May-15 22:00N 58°03' E 010°49'1 1.8
2017-May-15 21:30N 58°02' E 010°48'1 1.8
2017-May-15 21:00N 58°02' E 010°47'1 1.8
2017-May-15 20:30N 58°01' E 010°46'1 1.8
2017-May-15 20:00N 58°02' E 010°44'1 1.9
2017-May-15 19:30N 58°02' E 010°42'1 2.0
2017-May-15 19:00N 58°03' E 010°41'1 1.9
2017-May-15 18:28N 58°04' E 010°40'1 1.9
2017-May-15 18:00N 58°04' E 010°39'1 2.0
2017-May-15 17:30N 58°05' E 010°38'1 2.0
2017-May-15 17:00N 58°06' E 010°36'1 2.0
2017-May-15 16:30N 58°07' E 010°35'1 2.0
2017-May-15 16:00N 58°07' E 010°34'1 1.9
2017-May-15 15:30N 58°08' E 010°33'1 2.0
2017-May-15 15:00N 58°09' E 010°31'2 1.9
2017-May-15 14:00N 58°09' E 010°28'1 1.9
2017-May-15 13:30N 58°10' E 010°26'1 1.9
2017-May-15 13:00N 58°10' E 010°24'3 0.8
2017-May-15 09:21N 58°08' E 010°20'4 9.2
2017-May-15 08:56N 58°07' E 010°27'4 9.2
2017-May-15 08:28N 58°06' E 010°35'5 9.5
2017-May-15 07:59N 58°04' E 010°43'3 6.0
2017-May-15 07:29N 58°04' E 010°49'1 1.1
2017-May-15 07:00N 58°03' E 010°49'1 1.7
2017-May-15 06:30N 58°02' E 010°47'  

Dump ship's entire track history